sensor_id;sensor_type;location;lat;lon;timestamp;P1;durP1;ratioP1;P2;durP2;ratioP2
5929;SDS011;2990;48.746;9.236;2023-07-30T00:00:20;1213.15;;;999.90;;
5929;SDS011;2990;48.746;9.236;2023-07-30T00:02:45;1233.93;;;999.90;;
5929;SDS011;2990;48.746;9.236;2023-07-30T00:05:11;1205.13;;;999.90;;
5929;SDS011;2990;48.746;9.236;2023-07-30T00:07:36;1169.40;;;999.90;;
5929;SDS011;2990;48.746;9.236;2023-07-30T00:10:02;1154.85;;;999.90;;
5929;SDS011;2990;48.746;9.236;2023-07-30T00:12:27;1169.18;;;999.90;;
5929;SDS011;2990;48.746;9.236;2023-07-30T00:14:53;1180.63;;;999.90;;
5929;SDS011;2990;48.746;9.236;2023-07-30T00:17:19;1215.78;;;999.90;;
5929;SDS011;2990;48.746;9.236;2023-07-30T00:19:44;1251.35;;;999.90;;
5929;SDS011;2990;48.746;9.236;2023-07-30T00:22:10;1301.68;;;999.90;;
5929;SDS011;2990;48.746;9.236;2023-07-30T00:24:35;1340.20;;;999.90;;
5929;SDS011;2990;48.746;9.236;2023-07-30T00:27:01;1469.00;;;999.90;;
5929;SDS011;2990;48.746;9.236;2023-07-30T00:29:26;1454.00;;;999.90;;
5929;SDS011;2990;48.746;9.236;2023-07-30T00:31:52;1529.85;;;999.90;;
5929;SDS011;2990;48.746;9.236;2023-07-30T00:34:17;1493.55;;;999.90;;
5929;SDS011;2990;48.746;9.236;2023-07-30T00:36:43;1437.03;;;999.90;;
5929;SDS011;2990;48.746;9.236;2023-07-30T00:39:09;1485.35;;;999.90;;
5929;SDS011;2990;48.746;9.236;2023-07-30T00:41:36;1338.63;;;999.90;;
5929;SDS011;2990;48.746;9.236;2023-07-30T00:44:01;1373.78;;;999.90;;
5929;SDS011;2990;48.746;9.236;2023-07-30T00:46:27;1336.25;;;999.90;;
5929;SDS011;2990;48.746;9.236;2023-07-30T00:48:53;1279.80;;;999.90;;
5929;SDS011;2990;48.746;9.236;2023-07-30T00:51:18;1307.97;;;999.90;;
5929;SDS011;2990;48.746;9.236;2023-07-30T00:53:44;1276.18;;;999.90;;
5929;SDS011;2990;48.746;9.236;2023-07-30T00:56:10;1332.90;;;999.90;;
5929;SDS011;2990;48.746;9.236;2023-07-30T00:58:36;1293.70;;;999.90;;
5929;SDS011;2990;48.746;9.236;2023-07-30T01:01:02;1296.95;;;999.90;;
5929;SDS011;2990;48.746;9.236;2023-07-30T01:03:27;1294.22;;;999.90;;
5929;SDS011;2990;48.746;9.236;2023-07-30T01:05:53;1280.00;;;999.90;;
5929;SDS011;2990;48.746;9.236;2023-07-30T01:08:19;1298.20;;;999.90;;
5929;SDS011;2990;48.746;9.236;2023-07-30T01:10:45;1315.43;;;999.90;;
5929;SDS011;2990;48.746;9.236;2023-07-30T01:13:10;1282.57;;;999.90;;
5929;SDS011;2990;48.746;9.236;2023-07-30T01:15:37;1289.00;;;999.90;;
5929;SDS011;2990;48.746;9.236;2023-07-30T01:18:04;1306.60;;;999.90;;
5929;SDS011;2990;48.746;9.236;2023-07-30T01:20:30;1272.32;;;999.90;;
5929;SDS011;2990;48.746;9.236;2023-07-30T01:22:57;1296.50;;;999.90;;
5929;SDS011;2990;48.746;9.236;2023-07-30T01:25:23;1322.93;;;999.90;;
5929;SDS011;2990;48.746;9.236;2023-07-30T01:27:52;1317.80;;;999.90;;
5929;SDS011;2990;48.746;9.236;2023-07-30T01:30:30;1306.20;;;999.90;;
5929;SDS011;2990;48.746;9.236;2023-07-30T01:32:59;1289.22;;;999.90;;
5929;SDS011;2990;48.746;9.236;2023-07-30T01:35:26;1305.72;;;999.90;;
5929;SDS011;2990;48.746;9.236;2023-07-30T01:37:52;1313.63;;;999.90;;
5929;SDS011;2990;48.746;9.236;2023-07-30T01:40:19;1329.85;;;999.90;;
5929;SDS011;2990;48.746;9.236;2023-07-30T01:42:46;1290.50;;;999.90;;
5929;SDS011;2990;48.746;9.236;2023-07-30T01:45:11;1280.13;;;999.90;;
5929;SDS011;2990;48.746;9.236;2023-07-30T01:47:37;1298.50;;;999.90;;
5929;SDS011;2990;48.746;9.236;2023-07-30T01:50:02;1291.45;;;999.90;;
5929;SDS011;2990;48.746;9.236;2023-07-30T01:52:28;1312.07;;;999.90;;
5929;SDS011;2990;48.746;9.236;2023-07-30T01:54:54;1304.15;;;999.90;;
5929;SDS011;2990;48.746;9.236;2023-07-30T01:57:21;1259.18;;;999.90;;
5929;SDS011;2990;48.746;9.236;2023-07-30T01:59:46;1275.57;;;999.90;;
5929;SDS011;2990;48.746;9.236;2023-07-30T02:02:12;1277.18;;;999.90;;
5929;SDS011;2990;48.746;9.236;2023-07-30T02:04:37;1271.22;;;999.90;;
5929;SDS011;2990;48.746;9.236;2023-07-30T02:07:03;1281.22;;;999.90;;
5929;SDS011;2990;48.746;9.236;2023-07-30T02:09:29;1250.47;;;999.90;;
5929;SDS011;2990;48.746;9.236;2023-07-30T02:11:54;1282.32;;;999.90;;
5929;SDS011;2990;48.746;9.236;2023-07-30T02:14:20;1246.00;;;999.90;;
5929;SDS011;2990;48.746;9.236;2023-07-30T02:16:45;1240.15;;;999.90;;
5929;SDS011;2990;48.746;9.236;2023-07-30T02:19:11;1238.90;;;999.90;;
5929;SDS011;2990;48.746;9.236;2023-07-30T02:21:36;1241.57;;;999.90;;
5929;SDS011;2990;48.746;9.236;2023-07-30T02:24:07;1231.93;;;999.90;;
5929;SDS011;2990;48.746;9.236;2023-07-30T02:26:35;1274.93;;;999.90;;
5929;SDS011;2990;48.746;9.236;2023-07-30T02:29:00;1282.70;;;999.90;;
5929;SDS011;2990;48.746;9.236;2023-07-30T02:31:26;1293.82;;;999.90;;
5929;SDS011;2990;48.746;9.236;2023-07-30T02:33:52;1262.88;;;999.90;;
5929;SDS011;2990;48.746;9.236;2023-07-30T02:36:17;1269.72;;;999.90;;
5929;SDS011;2990;48.746;9.236;2023-07-30T02:38:43;1269.93;;;999.90;;
5929;SDS011;2990;48.746;9.236;2023-07-30T02:41:08;1255.40;;;999.90;;
5929;SDS011;2990;48.746;9.236;2023-07-30T02:43:34;1217.60;;;999.90;;
5929;SDS011;2990;48.746;9.236;2023-07-30T02:45:59;1259.97;;;999.90;;
5929;SDS011;2990;48.746;9.236;2023-07-30T02:48:25;1270.90;;;999.90;;
5929;SDS011;2990;48.746;9.236;2023-07-30T02:50:51;1270.10;;;999.90;;
5929;SDS011;2990;48.746;9.236;2023-07-30T02:53:16;1221.15;;;999.90;;
5929;SDS011;2990;48.746;9.236;2023-07-30T02:55:42;1213.70;;;999.90;;
5929;SDS011;2990;48.746;9.236;2023-07-30T02:58:07;1258.97;;;999.90;;
5929;SDS011;2990;48.746;9.236;2023-07-30T03:00:33;1249.53;;;999.90;;
5929;SDS011;2990;48.746;9.236;2023-07-30T03:02:58;1236.65;;;999.90;;
5929;SDS011;2990;48.746;9.236;2023-07-30T03:05:24;1227.32;;;999.90;;
5929;SDS011;2990;48.746;9.236;2023-07-30T03:07:51;1209.90;;;999.90;;
5929;SDS011;2990;48.746;9.236;2023-07-30T03:10:16;1215.07;;;999.90;;
5929;SDS011;2990;48.746;9.236;2023-07-30T03:12:42;1212.35;;;999.90;;
5929;SDS011;2990;48.746;9.236;2023-07-30T03:15:08;1219.65;;;999.90;;
5929;SDS011;2990;48.746;9.236;2023-07-30T03:17:33;1214.55;;;999.90;;
5929;SDS011;2990;48.746;9.236;2023-07-30T03:19:59;1254.20;;;999.90;;
5929;SDS011;2990;48.746;9.236;2023-07-30T03:22:24;1213.80;;;999.90;;
5929;SDS011;2990;48.746;9.236;2023-07-30T03:24:50;1223.93;;;999.90;;
5929;SDS011;2990;48.746;9.236;2023-07-30T03:27:15;1211.43;;;999.90;;
5929;SDS011;2990;48.746;9.236;2023-07-30T03:29:41;1258.72;;;999.90;;
5929;SDS011;2990;48.746;9.236;2023-07-30T03:32:07;1239.97;;;999.90;;
5929;SDS011;2990;48.746;9.236;2023-07-30T03:34:33;1248.93;;;999.90;;
5929;SDS011;2990;48.746;9.236;2023-07-30T03:36:58;1234.85;;;999.90;;
5929;SDS011;2990;48.746;9.236;2023-07-30T03:39:25;1238.25;;;999.90;;
5929;SDS011;2990;48.746;9.236;2023-07-30T03:41:51;1251.95;;;999.90;;
5929;SDS011;2990;48.746;9.236;2023-07-30T03:44:16;1233.10;;;999.90;;
5929;SDS011;2990;48.746;9.236;2023-07-30T03:46:42;1261.05;;;999.90;;
5929;SDS011;2990;48.746;9.236;2023-07-30T03:49:08;1259.30;;;999.90;;
5929;SDS011;2990;48.746;9.236;2023-07-30T03:51:34;1244.40;;;999.90;;
5929;SDS011;2990;48.746;9.236;2023-07-30T03:54:00;1237.57;;;999.90;;
5929;SDS011;2990;48.746;9.236;2023-07-30T03:56:25;1277.38;;;999.90;;
5929;SDS011;2990;48.746;9.236;2023-07-30T03:58:51;1274.88;;;999.90;;
5929;SDS011;2990;48.746;9.236;2023-07-30T04:01:16;1302.70;;;999.90;;
5929;SDS011;2990;48.746;9.236;2023-07-30T04:03:42;1297.85;;;999.90;;
5929;SDS011;2990;48.746;9.236;2023-07-30T04:06:07;1294.38;;;999.90;;
5929;SDS011;2990;48.746;9.236;2023-07-30T04:08:33;1308.22;;;999.90;;
5929;SDS011;2990;48.746;9.236;2023-07-30T04:10:59;1326.70;;;999.90;;
5929;SDS011;2990;48.746;9.236;2023-07-30T04:13:24;1329.63;;;999.90;;
5929;SDS011;2990;48.746;9.236;2023-07-30T04:15:50;1363.80;;;999.90;;
5929;SDS011;2990;48.746;9.236;2023-07-30T04:18:15;1342.72;;;999.90;;
5929;SDS011;2990;48.746;9.236;2023-07-30T04:20:41;1346.43;;;999.90;;
5929;SDS011;2990;48.746;9.236;2023-07-30T04:23:06;1341.15;;;999.90;;
5929;SDS011;2990;48.746;9.236;2023-07-30T04:25:32;1313.45;;;999.90;;
5929;SDS011;2990;48.746;9.236;2023-07-30T04:27:58;1311.45;;;999.90;;
5929;SDS011;2990;48.746;9.236;2023-07-30T04:30:23;1350.18;;;999.90;;
5929;SDS011;2990;48.746;9.236;2023-07-30T04:32:49;1337.22;;;999.90;;
5929;SDS011;2990;48.746;9.236;2023-07-30T04:35:14;1375.70;;;999.90;;
5929;SDS011;2990;48.746;9.236;2023-07-30T04:37:40;1322.85;;;999.90;;
5929;SDS011;2990;48.746;9.236;2023-07-30T04:40:06;1396.93;;;999.90;;
5929;SDS011;2990;48.746;9.236;2023-07-30T04:42:32;1356.82;;;999.90;;
5929;SDS011;2990;48.746;9.236;2023-07-30T04:44:57;1385.32;;;999.90;;
5929;SDS011;2990;48.746;9.236;2023-07-30T04:47:23;1324.22;;;999.90;;
5929;SDS011;2990;48.746;9.236;2023-07-30T04:49:48;1322.65;;;999.90;;
5929;SDS011;2990;48.746;9.236;2023-07-30T04:52:14;1354.40;;;999.90;;
5929;SDS011;2990;48.746;9.236;2023-07-30T04:54:39;1315.15;;;999.90;;
5929;SDS011;2990;48.746;9.236;2023-07-30T04:57:05;1367.40;;;999.90;;
5929;SDS011;2990;48.746;9.236;2023-07-30T04:59:31;1385.22;;;999.90;;
5929;SDS011;2990;48.746;9.236;2023-07-30T05:01:58;1343.68;;;999.90;;
5929;SDS011;2990;48.746;9.236;2023-07-30T05:04:24;1315.10;;;999.90;;
5929;SDS011;2990;48.746;9.236;2023-07-30T05:06:50;1381.50;;;999.90;;
5929;SDS011;2990;48.746;9.236;2023-07-30T05:09:15;1392.80;;;999.90;;
5929;SDS011;2990;48.746;9.236;2023-07-30T05:11:41;1352.30;;;999.90;;
5929;SDS011;2990;48.746;9.236;2023-07-30T05:14:07;1409.40;;;999.90;;
5929;SDS011;2990;48.746;9.236;2023-07-30T05:16:32;1392.22;;;999.90;;
5929;SDS011;2990;48.746;9.236;2023-07-30T05:18:58;1405.35;;;999.90;;
5929;SDS011;2990;48.746;9.236;2023-07-30T05:21:23;1423.90;;;999.90;;
5929;SDS011;2990;48.746;9.236;2023-07-30T05:23:50;1394.53;;;999.90;;
5929;SDS011;2990;48.746;9.236;2023-07-30T05:26:15;1347.65;;;999.90;;
5929;SDS011;2990;48.746;9.236;2023-07-30T05:28:41;1339.28;;;999.90;;
5929;SDS011;2990;48.746;9.236;2023-07-30T05:31:06;1354.18;;;999.90;;
5929;SDS011;2990;48.746;9.236;2023-07-30T05:33:32;1326.10;;;999.90;;
5929;SDS011;2990;48.746;9.236;2023-07-30T05:35:57;1380.80;;;999.90;;
5929;SDS011;2990;48.746;9.236;2023-07-30T05:38:23;1397.65;;;999.90;;
5929;SDS011;2990;48.746;9.236;2023-07-30T05:40:48;1357.03;;;999.90;;
5929;SDS011;2990;48.746;9.236;2023-07-30T05:43:14;1433.95;;;999.90;;
5929;SDS011;2990;48.746;9.236;2023-07-30T05:45:40;1356.70;;;999.90;;
5929;SDS011;2990;48.746;9.236;2023-07-30T05:48:06;1382.10;;;999.90;;
5929;SDS011;2990;48.746;9.236;2023-07-30T05:50:31;1456.50;;;999.90;;
5929;SDS011;2990;48.746;9.236;2023-07-30T05:52:57;1425.32;;;999.90;;
5929;SDS011;2990;48.746;9.236;2023-07-30T05:55:22;1403.20;;;999.90;;
5929;SDS011;2990;48.746;9.236;2023-07-30T05:57:48;1473.95;;;999.90;;
5929;SDS011;2990;48.746;9.236;2023-07-30T06:00:13;1496.22;;;999.90;;
5929;SDS011;2990;48.746;9.236;2023-07-30T06:02:39;1487.22;;;999.90;;
5929;SDS011;2990;48.746;9.236;2023-07-30T06:05:05;1469.78;;;999.90;;
5929;SDS011;2990;48.746;9.236;2023-07-30T06:07:30;1525.45;;;999.90;;
5929;SDS011;2990;48.746;9.236;2023-07-30T06:09:56;1447.50;;;999.90;;
5929;SDS011;2990;48.746;9.236;2023-07-30T06:12:21;1415.78;;;999.90;;
5929;SDS011;2990;48.746;9.236;2023-07-30T06:14:47;1527.45;;;999.90;;
5929;SDS011;2990;48.746;9.236;2023-07-30T06:17:12;1542.03;;;999.90;;
5929;SDS011;2990;48.746;9.236;2023-07-30T06:19:38;1526.45;;;999.90;;
5929;SDS011;2990;48.746;9.236;2023-07-30T06:22:04;1487.72;;;999.90;;
5929;SDS011;2990;48.746;9.236;2023-07-30T06:24:29;1432.57;;;999.90;;
5929;SDS011;2990;48.746;9.236;2023-07-30T06:26:55;1465.13;;;999.90;;
5929;SDS011;2990;48.746;9.236;2023-07-30T06:29:20;1385.88;;;999.90;;
5929;SDS011;2990;48.746;9.236;2023-07-30T06:31:46;1455.32;;;999.90;;
5929;SDS011;2990;48.746;9.236;2023-07-30T06:34:11;1395.53;;;999.90;;
5929;SDS011;2990;48.746;9.236;2023-07-30T06:36:37;1434.07;;;999.90;;
5929;SDS011;2990;48.746;9.236;2023-07-30T06:39:03;1377.32;;;999.90;;
5929;SDS011;2990;48.746;9.236;2023-07-30T06:41:28;1404.63;;;999.90;;
5929;SDS011;2990;48.746;9.236;2023-07-30T06:43:54;1332.72;;;999.90;;
5929;SDS011;2990;48.746;9.236;2023-07-30T06:46:19;1359.45;;;999.90;;
5929;SDS011;2990;48.746;9.236;2023-07-30T06:48:45;1438.15;;;999.90;;
5929;SDS011;2990;48.746;9.236;2023-07-30T06:51:10;1474.90;;;999.90;;
5929;SDS011;2990;48.746;9.236;2023-07-30T06:53:37;1428.90;;;999.90;;
5929;SDS011;2990;48.746;9.236;2023-07-30T06:56:03;1464.00;;;999.90;;
5929;SDS011;2990;48.746;9.236;2023-07-30T06:58:29;1399.28;;;999.90;;
5929;SDS011;2990;48.746;9.236;2023-07-30T07:00:54;1368.40;;;999.90;;
5929;SDS011;2990;48.746;9.236;2023-07-30T07:03:20;1343.05;;;999.90;;
5929;SDS011;2990;48.746;9.236;2023-07-30T07:05:52;1337.43;;;999.90;;
5929;SDS011;2990;48.746;9.236;2023-07-30T07:08:21;1307.45;;;999.90;;
5929;SDS011;2990;48.746;9.236;2023-07-30T07:10:47;1301.35;;;999.90;;
5929;SDS011;2990;48.746;9.236;2023-07-30T07:13:13;1310.80;;;999.90;;
5929;SDS011;2990;48.746;9.236;2023-07-30T07:15:41;1304.35;;;999.90;;
5929;SDS011;2990;48.746;9.236;2023-07-30T07:18:07;1303.75;;;999.90;;
5929;SDS011;2990;48.746;9.236;2023-07-30T07:20:33;1311.15;;;999.90;;
5929;SDS011;2990;48.746;9.236;2023-07-30T07:22:59;1343.50;;;999.90;;
5929;SDS011;2990;48.746;9.236;2023-07-30T07:25:24;1338.78;;;999.90;;
5929;SDS011;2990;48.746;9.236;2023-07-30T07:27:50;1366.68;;;999.90;;
5929;SDS011;2990;48.746;9.236;2023-07-30T07:30:16;1399.10;;;999.90;;
5929;SDS011;2990;48.746;9.236;2023-07-30T07:32:41;1359.60;;;999.90;;
5929;SDS011;2990;48.746;9.236;2023-07-30T07:35:07;1310.72;;;999.90;;
5929;SDS011;2990;48.746;9.236;2023-07-30T07:37:38;1359.97;;;999.90;;
5929;SDS011;2990;48.746;9.236;2023-07-30T07:40:04;1532.55;;;999.90;;
5929;SDS011;2990;48.746;9.236;2023-07-30T07:42:30;1534.88;;;999.90;;
5929;SDS011;2990;48.746;9.236;2023-07-30T07:44:56;1522.43;;;999.90;;
5929;SDS011;2990;48.746;9.236;2023-07-30T07:47:29;1544.95;;;999.90;;
5929;SDS011;2990;48.746;9.236;2023-07-30T07:49:57;1516.45;;;999.90;;
5929;SDS011;2990;48.746;9.236;2023-07-30T07:52:28;1461.90;;;999.90;;
5929;SDS011;2990;48.746;9.236;2023-07-30T07:54:59;1500.13;;;999.90;;
5929;SDS011;2990;48.746;9.236;2023-07-30T07:57:27;1473.10;;;999.90;;
5929;SDS011;2990;48.746;9.236;2023-07-30T07:59:59;1519.10;;;999.90;;
5929;SDS011;2990;48.746;9.236;2023-07-30T08:02:24;1510.28;;;999.90;;
5929;SDS011;2990;48.746;9.236;2023-07-30T08:05:00;1541.60;;;999.90;;
5929;SDS011;2990;48.746;9.236;2023-07-30T08:07:25;1559.85;;;999.90;;
5929;SDS011;2990;48.746;9.236;2023-07-30T08:09:51;1598.22;;;999.90;;
5929;SDS011;2990;48.746;9.236;2023-07-30T08:12:18;1657.00;;;999.90;;
5929;SDS011;2990;48.746;9.236;2023-07-30T08:14:44;1517.20;;;999.90;;
5929;SDS011;2990;48.746;9.236;2023-07-30T08:17:10;1581.47;;;999.90;;
5929;SDS011;2990;48.746;9.236;2023-07-30T08:20:02;1567.50;;;999.90;;
5929;SDS011;2990;48.746;9.236;2023-07-30T08:22:29;1626.13;;;999.90;;
5929;SDS011;2990;48.746;9.236;2023-07-30T08:24:54;1463.90;;;999.90;;
5929;SDS011;2990;48.746;9.236;2023-07-30T08:27:20;1435.85;;;999.90;;
5929;SDS011;2990;48.746;9.236;2023-07-30T08:29:46;1514.50;;;999.90;;
5929;SDS011;2990;48.746;9.236;2023-07-30T08:32:11;1482.90;;;999.90;;
5929;SDS011;2990;48.746;9.236;2023-07-30T08:34:37;1437.13;;;999.90;;
5929;SDS011;2990;48.746;9.236;2023-07-30T08:37:03;1444.93;;;999.90;;
5929;SDS011;2990;48.746;9.236;2023-07-30T08:39:29;1517.10;;;999.90;;
5929;SDS011;2990;48.746;9.236;2023-07-30T08:41:54;1297.15;;;999.90;;
5929;SDS011;2990;48.746;9.236;2023-07-30T08:44:20;1316.22;;;999.90;;
5929;SDS011;2990;48.746;9.236;2023-07-30T08:46:48;1387.95;;;999.90;;
5929;SDS011;2990;48.746;9.236;2023-07-30T08:49:14;1353.18;;;999.90;;
5929;SDS011;2990;48.746;9.236;2023-07-30T08:51:39;1280.18;;;999.90;;
5929;SDS011;2990;48.746;9.236;2023-07-30T08:54:08;1204.85;;;999.90;;
5929;SDS011;2990;48.746;9.236;2023-07-30T08:56:35;1232.95;;;999.90;;
5929;SDS011;2990;48.746;9.236;2023-07-30T08:59:01;1208.70;;;999.90;;
5929;SDS011;2990;48.746;9.236;2023-07-30T09:01:29;1233.95;;;999.90;;
5929;SDS011;2990;48.746;9.236;2023-07-30T09:03:57;1280.20;;;999.90;;
5929;SDS011;2990;48.746;9.236;2023-07-30T09:06:25;1268.25;;;999.90;;
5929;SDS011;2990;48.746;9.236;2023-07-30T09:08:51;1259.97;;;999.90;;
5929;SDS011;2990;48.746;9.236;2023-07-30T09:11:17;1243.53;;;999.90;;
5929;SDS011;2990;48.746;9.236;2023-07-30T09:13:43;1277.53;;;999.90;;
5929;SDS011;2990;48.746;9.236;2023-07-30T09:16:12;1220.97;;;999.90;;
5929;SDS011;2990;48.746;9.236;2023-07-30T09:18:39;1236.90;;;999.90;;
5929;SDS011;2990;48.746;9.236;2023-07-30T09:21:05;1173.78;;;999.90;;
5929;SDS011;2990;48.746;9.236;2023-07-30T09:23:31;1131.63;;;999.90;;
5929;SDS011;2990;48.746;9.236;2023-07-30T09:25:57;1192.32;;;999.90;;
5929;SDS011;2990;48.746;9.236;2023-07-30T09:28:30;1041.70;;;959.13;;
5929;SDS011;2990;48.746;9.236;2023-07-30T09:31:02;1068.03;;;982.28;;
5929;SDS011;2990;48.746;9.236;2023-07-30T09:33:30;1053.40;;;967.72;;
5929;SDS011;2990;48.746;9.236;2023-07-30T09:35:56;1069.18;;;981.70;;
5929;SDS011;2990;48.746;9.236;2023-07-30T09:38:22;1081.10;;;993.40;;
5929;SDS011;2990;48.746;9.236;2023-07-30T09:40:47;996.78;;;921.45;;
5929;SDS011;2990;48.746;9.236;2023-07-30T09:43:14;1027.50;;;948.97;;
5929;SDS011;2990;48.746;9.236;2023-07-30T09:45:40;973.58;;;900.22;;
5929;SDS011;2990;48.746;9.236;2023-07-30T09:48:09;984.70;;;908.58;;
5929;SDS011;2990;48.746;9.236;2023-07-30T09:50:36;954.03;;;883.67;;
5929;SDS011;2990;48.746;9.236;2023-07-30T09:53:03;990.38;;;916.85;;
5929;SDS011;2990;48.746;9.236;2023-07-30T09:55:29;882.15;;;820.28;;
5929;SDS011;2990;48.746;9.236;2023-07-30T09:57:55;978.50;;;905.55;;
5929;SDS011;2990;48.746;9.236;2023-07-30T10:00:20;1039.30;;;959.10;;
5929;SDS011;2990;48.746;9.236;2023-07-30T10:02:46;991.58;;;917.15;;
5929;SDS011;2990;48.746;9.236;2023-07-30T10:05:19;998.95;;;923.45;;
5929;SDS011;2990;48.746;9.236;2023-07-30T10:07:53;1017.08;;;938.20;;
5929;SDS011;2990;48.746;9.236;2023-07-30T10:10:25;976.97;;;904.25;;
5929;SDS011;2990;48.746;9.236;2023-07-30T10:12:54;953.65;;;884.33;;
5929;SDS011;2990;48.746;9.236;2023-07-30T10:15:23;992.45;;;917.08;;
5929;SDS011;2990;48.746;9.236;2023-07-30T10:17:50;1036.68;;;955.67;;
5929;SDS011;2990;48.746;9.236;2023-07-30T10:20:26;1057.88;;;973.05;;
5929;SDS011;2990;48.746;9.236;2023-07-30T10:22:56;1052.35;;;968.33;;
5929;SDS011;2990;48.746;9.236;2023-07-30T10:25:28;1052.80;;;969.88;;
5929;SDS011;2990;48.746;9.236;2023-07-30T10:27:55;1039.22;;;958.15;;
5929;SDS011;2990;48.746;9.236;2023-07-30T10:30:27;1021.47;;;939.85;;
5929;SDS011;2990;48.746;9.236;2023-07-30T10:35:41;1002.20;;;924.42;;
5929;SDS011;2990;48.746;9.236;2023-07-30T10:38:29;992.83;;;918.33;;
5929;SDS011;2990;48.746;9.236;2023-07-30T10:43:31;1006.90;;;929.35;;
5929;SDS011;2990;48.746;9.236;2023-07-30T10:46:12;950.17;;;880.30;;
5929;SDS011;2990;48.746;9.236;2023-07-30T10:48:40;937.90;;;868.35;;
5929;SDS011;2990;48.746;9.236;2023-07-30T10:51:11;918.17;;;851.42;;
5929;SDS011;2990;48.746;9.236;2023-07-30T10:53:44;969.78;;;896.25;;
5929;SDS011;2990;48.746;9.236;2023-07-30T10:56:15;1080.63;;;990.25;;
5929;SDS011;2990;48.746;9.236;2023-07-30T10:58:42;1074.93;;;986.28;;
5929;SDS011;2990;48.746;9.236;2023-07-30T11:01:08;1036.13;;;952.00;;
5929;SDS011;2990;48.746;9.236;2023-07-30T11:03:35;1028.45;;;946.17;;
5929;SDS011;2990;48.746;9.236;2023-07-30T11:06:01;1077.72;;;989.47;;
5929;SDS011;2990;48.746;9.236;2023-07-30T11:08:37;1088.03;;;995.83;;
5929;SDS011;2990;48.746;9.236;2023-07-30T11:11:05;1048.43;;;964.28;;
5929;SDS011;2990;48.746;9.236;2023-07-30T11:13:39;983.03;;;907.13;;
5929;SDS011;2990;48.746;9.236;2023-07-30T11:16:06;1042.32;;;957.90;;
5929;SDS011;2990;48.746;9.236;2023-07-30T11:18:32;1091.90;;;998.00;;
5929;SDS011;2990;48.746;9.236;2023-07-30T11:21:03;1111.05;;;999.90;;
5929;SDS011;2990;48.746;9.236;2023-07-30T11:23:29;1102.75;;;999.85;;
5929;SDS011;2990;48.746;9.236;2023-07-30T11:25:54;1105.88;;;999.90;;
5929;SDS011;2990;48.746;9.236;2023-07-30T11:28:27;1091.22;;;996.35;;
5929;SDS011;2990;48.746;9.236;2023-07-30T11:31:03;1032.15;;;948.97;;
5929;SDS011;2990;48.746;9.236;2023-07-30T11:33:29;1063.93;;;978.15;;
5929;SDS011;2990;48.746;9.236;2023-07-30T11:35:55;1045.88;;;963.15;;
5929;SDS011;2990;48.746;9.236;2023-07-30T11:38:25;1045.63;;;962.00;;
5929;SDS011;2990;48.746;9.236;2023-07-30T11:40:52;1058.10;;;973.50;;
5929;SDS011;2990;48.746;9.236;2023-07-30T11:43:19;1102.03;;;999.47;;
5929;SDS011;2990;48.746;9.236;2023-07-30T11:45:46;1123.97;;;999.90;;
5929;SDS011;2990;48.746;9.236;2023-07-30T11:48:12;1139.32;;;999.90;;
5929;SDS011;2990;48.746;9.236;2023-07-30T11:54:07;1085.85;;;992.35;;
5929;SDS011;2990;48.746;9.236;2023-07-30T11:56:33;1147.70;;;999.90;;
5929;SDS011;2990;48.746;9.236;2023-07-30T11:59:00;1144.47;;;999.90;;
5929;SDS011;2990;48.746;9.236;2023-07-30T12:01:29;1178.30;;;999.90;;
5929;SDS011;2990;48.746;9.236;2023-07-30T12:03:56;1157.97;;;999.90;;
5929;SDS011;2990;48.746;9.236;2023-07-30T12:06:23;1156.82;;;999.90;;
5929;SDS011;2990;48.746;9.236;2023-07-30T12:08:49;1138.55;;;999.90;;
5929;SDS011;2990;48.746;9.236;2023-07-30T12:11:15;1097.95;;;998.70;;
5929;SDS011;2990;48.746;9.236;2023-07-30T12:13:44;1194.03;;;999.90;;
5929;SDS011;2990;48.746;9.236;2023-07-30T12:16:10;1153.60;;;999.90;;
5929;SDS011;2990;48.746;9.236;2023-07-30T12:18:37;1110.90;;;999.90;;
5929;SDS011;2990;48.746;9.236;2023-07-30T12:21:04;1076.22;;;988.75;;
5929;SDS011;2990;48.746;9.236;2023-07-30T12:23:32;1113.55;;;999.90;;
5929;SDS011;2990;48.746;9.236;2023-07-30T12:26:01;1037.22;;;954.85;;
5929;SDS011;2990;48.746;9.236;2023-07-30T12:28:29;1056.85;;;971.30;;
5929;SDS011;2990;48.746;9.236;2023-07-30T12:30:56;1101.78;;;999.90;;
5929;SDS011;2990;48.746;9.236;2023-07-30T12:33:21;1041.97;;;959.45;;
5929;SDS011;2990;48.746;9.236;2023-07-30T12:35:47;1136.60;;;999.90;;
5929;SDS011;2990;48.746;9.236;2023-07-30T12:38:15;1061.70;;;976.47;;
5929;SDS011;2990;48.746;9.236;2023-07-30T12:40:40;1097.40;;;999.88;;
5929;SDS011;2990;48.746;9.236;2023-07-30T12:43:06;1075.95;;;987.97;;
5929;SDS011;2990;48.746;9.236;2023-07-30T12:45:31;1052.00;;;967.25;;
5929;SDS011;2990;48.746;9.236;2023-07-30T12:47:57;1018.78;;;937.10;;
5929;SDS011;2990;48.746;9.236;2023-07-30T12:50:23;1062.07;;;976.47;;
5929;SDS011;2990;48.746;9.236;2023-07-30T12:52:48;1064.75;;;978.10;;
5929;SDS011;2990;48.746;9.236;2023-07-30T12:55:14;1050.43;;;965.40;;
5929;SDS011;2990;48.746;9.236;2023-07-30T12:57:39;1046.55;;;961.17;;
5929;SDS011;2990;48.746;9.236;2023-07-30T13:00:05;1007.72;;;926.95;;
5929;SDS011;2990;48.746;9.236;2023-07-30T13:02:31;1055.25;;;970.35;;
5929;SDS011;2990;48.746;9.236;2023-07-30T13:04:59;994.08;;;916.45;;
5929;SDS011;2990;48.746;9.236;2023-07-30T13:07:25;1017.88;;;938.25;;
5929;SDS011;2990;48.746;9.236;2023-07-30T13:10:01;1030.32;;;949.33;;
5929;SDS011;2990;48.746;9.236;2023-07-30T13:12:30;1016.40;;;937.35;;
5929;SDS011;2990;48.746;9.236;2023-07-30T13:14:56;1020.08;;;938.65;;
5929;SDS011;2990;48.746;9.236;2023-07-30T13:17:22;989.25;;;911.85;;
5929;SDS011;2990;48.746;9.236;2023-07-30T13:19:47;1020.47;;;940.35;;
5929;SDS011;2990;48.746;9.236;2023-07-30T13:22:13;1057.95;;;971.15;;
5929;SDS011;2990;48.746;9.236;2023-07-30T13:24:38;1043.05;;;958.33;;
5929;SDS011;2990;48.746;9.236;2023-07-30T13:27:04;1096.47;;;997.97;;
5929;SDS011;2990;48.746;9.236;2023-07-30T13:29:30;1120.78;;;999.90;;
5929;SDS011;2990;48.746;9.236;2023-07-30T13:31:56;1115.85;;;999.90;;
5929;SDS011;2990;48.746;9.236;2023-07-30T13:34:21;1097.43;;;996.10;;
5929;SDS011;2990;48.746;9.236;2023-07-30T13:36:47;1089.00;;;994.85;;
5929;SDS011;2990;48.746;9.236;2023-07-30T13:39:13;1060.85;;;973.08;;
5929;SDS011;2990;48.746;9.236;2023-07-30T13:41:38;1035.80;;;953.53;;
5929;SDS011;2990;48.746;9.236;2023-07-30T13:44:04;1029.53;;;948.63;;
5929;SDS011;2990;48.746;9.236;2023-07-30T13:46:29;1019.95;;;938.53;;
5929;SDS011;2990;48.746;9.236;2023-07-30T13:48:55;1057.38;;;972.50;;
5929;SDS011;2990;48.746;9.236;2023-07-30T13:51:20;1073.45;;;984.53;;
5929;SDS011;2990;48.746;9.236;2023-07-30T13:53:46;1104.13;;;999.22;;
5929;SDS011;2990;48.746;9.236;2023-07-30T13:56:11;1128.18;;;999.90;;
5929;SDS011;2990;48.746;9.236;2023-07-30T13:58:37;1133.75;;;999.90;;
5929;SDS011;2990;48.746;9.236;2023-07-30T14:01:04;1125.15;;;999.90;;
5929;SDS011;2990;48.746;9.236;2023-07-30T14:03:31;1130.38;;;999.90;;
5929;SDS011;2990;48.746;9.236;2023-07-30T14:05:57;1146.55;;;999.90;;
5929;SDS011;2990;48.746;9.236;2023-07-30T14:08:23;1119.65;;;999.90;;
5929;SDS011;2990;48.746;9.236;2023-07-30T14:10:48;1087.30;;;992.30;;
5929;SDS011;2990;48.746;9.236;2023-07-30T14:13:14;1151.20;;;999.90;;